sensor_id;sensor_type;location;lat;lon;timestamp;temperature;humidity
50690;DHT22;54375;48.298;11.238;2022-09-03T00:00:17;13.10;77.60
50690;DHT22;54375;48.298;11.238;2022-09-03T00:03:23;13.10;77.90
50690;DHT22;54375;48.298;11.238;2022-09-03T00:06:33;13.10;78.00
50690;DHT22;54375;48.298;11.238;2022-09-03T00:09:39;13.10;78.00
50690;DHT22;54375;48.298;11.238;2022-09-03T00:12:43;13.20;78.00
50690;DHT22;54375;48.298;11.238;2022-09-03T00:15:45;13.20;77.60
50690;DHT22;54375;48.298;11.238;2022-09-03T00:18:51;13.20;77.80
50690;DHT22;54375;48.298;11.238;2022-09-03T00:21:57;13.20;78.20
50690;DHT22;54375;48.298;11.238;2022-09-03T00:25:03;13.20;78.30
50690;DHT22;54375;48.298;11.238;2022-09-03T00:28:10;13.20;78.30
50690;DHT22;54375;48.298;11.238;2022-09-03T00:31:15;13.20;78.20
50690;DHT22;54375;48.298;11.238;2022-09-03T00:34:20;13.20;77.90
50690;DHT22;54375;48.298;11.238;2022-09-03T00:37:24;13.20;77.60
50690;DHT22;54375;48.298;11.238;2022-09-03T00:40:41;13.20;77.50
50690;DHT22;54375;48.298;11.238;2022-09-03T00:43:57;13.30;77.40
50690;DHT22;54375;48.298;11.238;2022-09-03T00:47:08;13.20;77.40
50690;DHT22;54375;48.298;11.238;2022-09-03T00:50:16;13.30;77.30
50690;DHT22;54375;48.298;11.238;2022-09-03T00:53:27;13.20;77.20
50690;DHT22;54375;48.298;11.238;2022-09-03T00:56:35;13.20;77.20
50690;DHT22;54375;48.298;11.238;2022-09-03T00:59:43;13.20;77.20
50690;DHT22;54375;48.298;11.238;2022-09-03T01:03:00;13.20;77.20
50690;DHT22;54375;48.298;11.238;2022-09-03T01:06:11;13.10;77.80
50690;DHT22;54375;48.298;11.238;2022-09-03T01:09:29;13.10;77.60
50690;DHT22;54375;48.298;11.238;2022-09-03T01:12:40;13.10;78.10
50690;DHT22;54375;48.298;11.238;2022-09-03T01:15:47;13.00;78.50
50690;DHT22;54375;48.298;11.238;2022-09-03T01:19:03;12.90;78.60
50690;DHT22;54375;48.298;11.238;2022-09-03T01:22:20;12.90;78.80
50690;DHT22;54375;48.298;11.238;2022-09-03T01:25:37;12.90;78.70
50690;DHT22;54375;48.298;11.238;2022-09-03T01:28:51;12.90;78.70
50690;DHT22;54375;48.298;11.238;2022-09-03T01:32:02;12.90;78.70
50690;DHT22;54375;48.298;11.238;2022-09-03T01:35:12;12.90;78.70
50690;DHT22;54375;48.298;11.238;2022-09-03T01:38:28;12.90;78.50
50690;DHT22;54375;48.298;11.238;2022-09-03T01:41:41;12.90;78.60
50690;DHT22;54375;48.298;11.238;2022-09-03T01:45:05;12.80;78.50
50690;DHT22;54375;48.298;11.238;2022-09-03T01:48:18;12.80;78.50
50690;DHT22;54375;48.298;11.238;2022-09-03T01:51:23;12.70;78.40
50690;DHT22;54375;48.298;11.238;2022-09-03T01:54:43;12.70;78.60
50690;DHT22;54375;48.298;11.238;2022-09-03T01:57:51;12.70;78.60
50690;DHT22;54375;48.298;11.238;2022-09-03T02:01:00;12.60;78.50
50690;DHT22;54375;48.298;11.238;2022-09-03T02:04:14;12.60;78.70
50690;DHT22;54375;48.298;11.238;2022-09-03T02:07:16;12.60;78.80
50690;DHT22;54375;48.298;11.238;2022-09-03T02:10:20;12.50;79.50
50690;DHT22;54375;48.298;11.238;2022-09-03T02:13:25;12.40;79.20
50690;DHT22;54375;48.298;11.238;2022-09-03T02:16:30;12.40;79.50
50690;DHT22;54375;48.298;11.238;2022-09-03T02:19:32;12.30;80.00
50690;DHT22;54375;48.298;11.238;2022-09-03T02:22:34;12.30;80.00
50690;DHT22;54375;48.298;11.238;2022-09-03T02:25:39;12.20;80.10
50690;DHT22;54375;48.298;11.238;2022-09-03T02:28:41;12.20;80.50
50690;DHT22;54375;48.298;11.238;2022-09-03T02:31:43;12.20;80.40
50690;DHT22;54375;48.298;11.238;2022-09-03T02:34:45;12.10;80.50
50690;DHT22;54375;48.298;11.238;2022-09-03T02:37:46;12.00;80.50
50690;DHT22;54375;48.298;11.238;2022-09-03T02:40:47;12.00;80.80
50690;DHT22;54375;48.298;11.238;2022-09-03T02:43:50;12.00;81.10
50690;DHT22;54375;48.298;11.238;2022-09-03T02:46:59;11.90;81.40
50690;DHT22;54375;48.298;11.238;2022-09-03T02:50:00;11.90;81.50
50690;DHT22;54375;48.298;11.238;2022-09-03T02:53:01;11.90;82.30
50690;DHT22;54375;48.298;11.238;2022-09-03T02:56:02;11.80;81.90
50690;DHT22;54375;48.298;11.238;2022-09-03T02:59:04;11.70;82.10
50690;DHT22;54375;48.298;11.238;2022-09-03T03:02:06;11.70;82.30
50690;DHT22;54375;48.298;11.238;2022-09-03T03:05:08;11.70;82.40
50690;DHT22;54375;48.298;11.238;2022-09-03T03:08:12;11.70;83.00
50690;DHT22;54375;48.298;11.238;2022-09-03T03:11:13;11.70;82.50
50690;DHT22;54375;48.298;11.238;2022-09-03T03:14:14;11.60;82.70
50690;DHT22;54375;48.298;11.238;2022-09-03T03:17:16;11.60;82.80
50690;DHT22;54375;48.298;11.238;2022-09-03T03:20:17;11.50;82.80
50690;DHT22;54375;48.298;11.238;2022-09-03T03:23:17;11.40;83.00
50690;DHT22;54375;48.298;11.238;2022-09-03T03:26:19;11.40;83.00
50690;DHT22;54375;48.298;11.238;2022-09-03T03:29:21;11.30;83.20
50690;DHT22;54375;48.298;11.238;2022-09-03T03:32:23;11.30;83.70
50690;DHT22;54375;48.298;11.238;2022-09-03T03:35:24;11.20;84.00
50690;DHT22;54375;48.298;11.238;2022-09-03T03:38:25;11.20;84.20
50690;DHT22;54375;48.298;11.238;2022-09-03T03:41:27;11.20;84.20
50690;DHT22;54375;48.298;11.238;2022-09-03T03:44:28;11.20;84.30
50690;DHT22;54375;48.298;11.238;2022-09-03T03:47:30;11.20;84.50
50690;DHT22;54375;48.298;11.238;2022-09-03T03:50:31;11.20;84.70
50690;DHT22;54375;48.298;11.238;2022-09-03T03:53:32;11.20;84.70
50690;DHT22;54375;48.298;11.238;2022-09-03T03:56:34;11.20;84.70
50690;DHT22;54375;48.298;11.238;2022-09-03T03:59:35;11.20;85.10
50690;DHT22;54375;48.298;11.238;2022-09-03T04:02:37;11.20;84.30
50690;DHT22;54375;48.298;11.238;2022-09-03T04:05:37;11.20;84.70
50690;DHT22;54375;48.298;11.238;2022-09-03T04:08:39;11.20;84.80
50690;DHT22;54375;48.298;11.238;2022-09-03T04:11:41;11.30;85.30
50690;DHT22;54375;48.298;11.238;2022-09-03T04:14:41;11.30;84.50
50690;DHT22;54375;48.298;11.238;2022-09-03T04:17:43;11.30;84.50
50690;DHT22;54375;48.298;11.238;2022-09-03T04:20:44;11.30;84.30
50690;DHT22;54375;48.298;11.238;2022-09-03T04:23:46;11.40;84.40
50690;DHT22;54375;48.298;11.238;2022-09-03T04:26:47;11.40;84.10
50690;DHT22;54375;48.298;11.238;2022-09-03T04:29:48;11.40;83.80
50690;DHT22;54375;48.298;11.238;2022-09-03T04:32:50;11.40;83.70
50690;DHT22;54375;48.298;11.238;2022-09-03T04:35:51;11.40;83.80
50690;DHT22;54375;48.298;11.238;2022-09-03T04:38:53;11.50;83.70
50690;DHT22;54375;48.298;11.238;2022-09-03T04:41:54;11.50;83.60
50690;DHT22;54375;48.298;11.238;2022-09-03T04:44:55;11.50;83.50
50690;DHT22;54375;48.298;11.238;2022-09-03T04:47:58;11.50;83.50
50690;DHT22;54375;48.298;11.238;2022-09-03T04:51:05;11.60;83.60
50690;DHT22;54375;48.298;11.238;2022-09-03T04:54:06;11.60;84.30
50690;DHT22;54375;48.298;11.238;2022-09-03T04:57:07;11.70;84.60
50690;DHT22;54375;48.298;11.238;2022-09-03T05:00:09;11.70;84.60
50690;DHT22;54375;48.298;11.238;2022-09-03T05:03:11;11.70;84.20
50690;DHT22;54375;48.298;11.238;2022-09-03T05:06:12;11.80;83.80
50690;DHT22;54375;48.298;11.238;2022-09-03T05:09:13;11.80;83.70
50690;DHT22;54375;48.298;11.238;2022-09-03T05:12:14;11.90;83.80
50690;DHT22;54375;48.298;11.238;2022-09-03T05:15:15;11.90;83.50
50690;DHT22;54375;48.298;11.238;2022-09-03T05:18:17;12.00;83.30
50690;DHT22;54375;48.298;11.238;2022-09-03T05:21:18;12.00;83.20
50690;DHT22;54375;48.298;11.238;2022-09-03T05:24:19;12.10;83.40
50690;DHT22;54375;48.298;11.238;2022-09-03T05:27:19;12.10;83.50
50690;DHT22;54375;48.298;11.238;2022-09-03T05:30:20;12.20;83.90
50690;DHT22;54375;48.298;11.238;2022-09-03T05:33:22;12.30;82.70
50690;DHT22;54375;48.298;11.238;2022-09-03T05:36:25;12.30;82.40
50690;DHT22;54375;48.298;11.238;2022-09-03T05:39:26;12.40;82.20
50690;DHT22;54375;48.298;11.238;2022-09-03T05:42:27;12.40;82.60
50690;DHT22;54375;48.298;11.238;2022-09-03T05:45:27;12.40;82.70
50690;DHT22;54375;48.298;11.238;2022-09-03T05:48:30;12.40;82.80
50690;DHT22;54375;48.298;11.238;2022-09-03T05:51:32;12.50;82.60
50690;DHT22;54375;48.298;11.238;2022-09-03T05:54:33;12.60;82.30
50690;DHT22;54375;48.298;11.238;2022-09-03T05:57:34;12.60;82.00
50690;DHT22;54375;48.298;11.238;2022-09-03T06:00:34;12.70;81.50
50690;DHT22;54375;48.298;11.238;2022-09-03T06:03:37;12.80;81.50
50690;DHT22;54375;48.298;11.238;2022-09-03T06:06:39;12.90;81.20
50690;DHT22;54375;48.298;11.238;2022-09-03T06:09:40;13.00;81.10
50690;DHT22;54375;48.298;11.238;2022-09-03T06:12:41;13.10;81.30
50690;DHT22;54375;48.298;11.238;2022-09-03T06:15:42;13.30;81.10
50690;DHT22;54375;48.298;11.238;2022-09-03T06:18:44;13.40;80.40
50690;DHT22;54375;48.298;11.238;2022-09-03T06:21:46;13.50;80.00
50690;DHT22;54375;48.298;11.238;2022-09-03T06:24:47;13.60;79.60
50690;DHT22;54375;48.298;11.238;2022-09-03T06:27:47;13.70;79.40
50690;DHT22;54375;48.298;11.238;2022-09-03T06:30:48;13.80;79.10
50690;DHT22;54375;48.298;11.238;2022-09-03T06:33:50;13.80;78.60
50690;DHT22;54375;48.298;11.238;2022-09-03T06:36:52;13.90;78.20
50690;DHT22;54375;48.298;11.238;2022-09-03T06:39:52;13.90;78.40
50690;DHT22;54375;48.298;11.238;2022-09-03T06:42:57;14.00;78.80
50690;DHT22;54375;48.298;11.238;2022-09-03T06:45:58;14.00;79.20
50690;DHT22;54375;48.298;11.238;2022-09-03T06:49:01;14.10;79.50
50690;DHT22;54375;48.298;11.238;2022-09-03T06:52:02;14.10;79.60
50690;DHT22;54375;48.298;11.238;2022-09-03T06:55:03;14.10;79.90
50690;DHT22;54375;48.298;11.238;2022-09-03T06:58:04;14.10;80.10
50690;DHT22;54375;48.298;11.238;2022-09-03T07:01:06;14.10;80.30
50690;DHT22;54375;48.298;11.238;2022-09-03T07:04:08;14.20;80.60
50690;DHT22;54375;48.298;11.238;2022-09-03T07:07:09;14.20;80.70
50690;DHT22;54375;48.298;11.238;2022-09-03T07:10:10;14.30;80.80
50690;DHT22;54375;48.298;11.238;2022-09-03T07:13:10;14.40;81.20
50690;DHT22;54375;48.298;11.238;2022-09-03T07:16:13;14.40;80.70
50690;DHT22;54375;48.298;11.238;2022-09-03T07:19:15;14.50;80.20
50690;DHT22;54375;48.298;11.238;2022-09-03T07:22:16;14.60;80.10
50690;DHT22;54375;48.298;11.238;2022-09-03T07:25:17;14.70;80.20
50690;DHT22;54375;48.298;11.238;2022-09-03T07:28:18;14.70;80.00
50690;DHT22;54375;48.298;11.238;2022-09-03T07:31:20;14.80;80.00
50690;DHT22;54375;48.298;11.238;2022-09-03T07:34:23;14.90;80.00
50690;DHT22;54375;48.298;11.238;2022-09-03T07:37:23;15.00;79.90
50690;DHT22;54375;48.298;11.238;2022-09-03T07:40:24;15.10;79.90
50690;DHT22;54375;48.298;11.238;2022-09-03T07:43:25;15.30;80.00
50690;DHT22;54375;48.298;11.238;2022-09-03T07:46:26;15.50;79.90
50690;DHT22;54375;48.298;11.238;2022-09-03T07:49:28;15.70;80.10
50690;DHT22;54375;48.298;11.238;2022-09-03T07:52:29;15.90;79.50
50690;DHT22;54375;48.298;11.238;2022-09-03T07:55:30;16.10;80.40
50690;DHT22;54375;48.298;11.238;2022-09-03T07:58:32;16.40;79.30
50690;DHT22;54375;48.298;11.238;2022-09-03T08:01:34;16.70;78.80
50690;DHT22;54375;48.298;11.238;2022-09-03T08:04:36;17.10;77.00
50690;DHT22;54375;48.298;11.238;2022-09-03T08:07:37;17.50;76.50
50690;DHT22;54375;48.298;11.238;2022-09-03T08:10:37;17.70;75.10
50690;DHT22;54375;48.298;11.238;2022-09-03T08:13:38;17.90;75.30
50690;DHT22;54375;48.298;11.238;2022-09-03T08:16:41;18.20;74.80
50690;DHT22;54375;48.298;11.238;2022-09-03T08:19:43;18.50;73.60
50690;DHT22;54375;48.298;11.238;2022-09-03T08:22:44;18.80;72.60
50690;DHT22;54375;48.298;11.238;2022-09-03T08:25:45;19.00;72.60
50690;DHT22;54375;48.298;11.238;2022-09-03T08:28:46;19.20;71.70
50690;DHT22;54375;48.298;11.238;2022-09-03T08:31:47;19.50;71.20
50690;DHT22;54375;48.298;11.238;2022-09-03T08:34:49;19.90;70.40
50690;DHT22;54375;48.298;11.238;2022-09-03T08:37:49;20.20;69.90
50690;DHT22;54375;48.298;11.238;2022-09-03T08:40:50;20.50;68.50
50690;DHT22;54375;48.298;11.238;2022-09-03T08:44:00;20.80;67.90
50690;DHT22;54375;48.298;11.238;2022-09-03T08:47:08;21.10;66.90
50690;DHT22;54375;48.298;11.238;2022-09-03T08:50:16;21.40;65.70
50690;DHT22;54375;48.298;11.238;2022-09-03T08:53:27;21.70;64.70
50690;DHT22;54375;48.298;11.238;2022-09-03T08:56:31;21.90;65.30
50690;DHT22;54375;48.298;11.238;2022-09-03T08:59:35;22.20;64.90
50690;DHT22;54375;48.298;11.238;2022-09-03T09:02:46;22.40;64.10
50690;DHT22;54375;48.298;11.238;2022-09-03T09:05:53;22.40;63.70
50690;DHT22;54375;48.298;11.238;2022-09-03T09:09:02;22.60;63.80
50690;DHT22;54375;48.298;11.238;2022-09-03T09:12:12;22.70;62.10
50690;DHT22;54375;48.298;11.238;2022-09-03T09:15:25;22.90;62.20
50690;DHT22;54375;48.298;11.238;2022-09-03T09:18:35;23.00;61.90
50690;DHT22;54375;48.298;11.238;2022-09-03T09:21:47;23.10;61.80
50690;DHT22;54375;48.298;11.238;2022-09-03T09:24:50;23.10;61.80
50690;DHT22;54375;48.298;11.238;2022-09-03T09:27:56;23.00;61.90
50690;DHT22;54375;48.298;11.238;2022-09-03T09:31:01;23.20;62.30
50690;DHT22;54375;48.298;11.238;2022-09-03T09:34:04;23.30;62.10
50690;DHT22;54375;48.298;11.238;2022-09-03T09:37:09;23.30;62.10
50690;DHT22;54375;48.298;11.238;2022-09-03T09:40:10;23.30;61.70
50690;DHT22;54375;48.298;11.238;2022-09-03T09:43:12;23.40;61.30
50690;DHT22;54375;48.298;11.238;2022-09-03T09:46:18;23.70;60.30
50690;DHT22;54375;48.298;11.238;2022-09-03T09:49:28;24.10;60.10
50690;DHT22;54375;48.298;11.238;2022-09-03T09:52:31;24.30;59.40
50690;DHT22;54375;48.298;11.238;2022-09-03T09:55:32;24.40;57.50
50690;DHT22;54375;48.298;11.238;2022-09-03T09:58:34;24.50;57.90
50690;DHT22;54375;48.298;11.238;2022-09-03T10:01:37;24.60;57.30
50690;DHT22;54375;48.298;11.238;2022-09-03T10:04:38;24.60;57.50
50690;DHT22;54375;48.298;11.238;2022-09-03T10:07:41;24.30;56.30
50690;DHT22;54375;48.298;11.238;2022-09-03T10:10:44;24.10;55.70
50690;DHT22;54375;48.298;11.238;2022-09-03T10:13:47;23.90;57.50
50690;DHT22;54375;48.298;11.238;2022-09-03T10:16:53;23.90;57.90
50690;DHT22;54375;48.298;11.238;2022-09-03T10:19:59;23.90;57.60
50690;DHT22;54375;48.298;11.238;2022-09-03T10:23:12;23.90;57.90
50690;DHT22;54375;48.298;11.238;2022-09-03T10:26:16;23.90;58.10
50690;DHT22;54375;48.298;11.238;2022-09-03T10:29:21;23.80;57.70
50690;DHT22;54375;48.298;11.238;2022-09-03T10:32:31;23.80;58.00
50690;DHT22;54375;48.298;11.238;2022-09-03T10:35:41;23.70;57.00
50690;DHT22;54375;48.298;11.238;2022-09-03T10:38:49;23.30;58.60
50690;DHT22;54375;48.298;11.238;2022-09-03T10:42:01;23.10;59.00
50690;DHT22;54375;48.298;11.238;2022-09-03T10:45:16;23.10;59.40
50690;DHT22;54375;48.298;11.238;2022-09-03T10:48:54;23.20;59.40
50690;DHT22;54375;48.298;11.238;2022-09-03T10:52:09;23.10;59.20
50690;DHT22;54375;48.298;11.238;2022-09-03T10:55:18;23.20;60.30
50690;DHT22;54375;48.298;11.238;2022-09-03T10:58:39;23.20;59.40
50690;DHT22;54375;48.298;11.238;2022-09-03T11:01:50;23.10;60.50
50690;DHT22;54375;48.298;11.238;2022-09-03T11:04:57;23.10;61.10
50690;DHT22;54375;48.298;11.238;2022-09-03T11:08:04;23.20;60.00
50690;DHT22;54375;48.298;11.238;2022-09-03T11:11:13;23.30;60.20
50690;DHT22;54375;48.298;11.238;2022-09-03T11:14:21;23.20;59.00
50690;DHT22;54375;48.298;11.238;2022-09-03T11:17:28;23.30;60.10
50690;DHT22;54375;48.298;11.238;2022-09-03T11:20:29;23.60;59.20
50690;DHT22;54375;48.298;11.238;2022-09-03T11:23:33;23.80;57.20
50690;DHT22;54375;48.298;11.238;2022-09-03T11:26:37;23.80;55.50
50690;DHT22;54375;48.298;11.238;2022-09-03T11:29:43;23.90;55.90
50690;DHT22;54375;48.298;11.238;2022-09-03T11:32:51;24.00;56.10
50690;DHT22;54375;48.298;11.238;2022-09-03T11:35:56;24.20;55.50
50690;DHT22;54375;48.298;11.238;2022-09-03T11:38:58;24.50;55.60
50690;DHT22;54375;48.298;11.238;2022-09-03T11:42:02;24.70;53.80
50690;DHT22;54375;48.298;11.238;2022-09-03T11:45:20;24.90;54.00
50690;DHT22;54375;48.298;11.238;2022-09-03T11:48:35;25.20;54.10
50690;DHT22;54375;48.298;11.238;2022-09-03T11:51:37;25.40;54.50
50690;DHT22;54375;48.298;11.238;2022-09-03T11:54:43;25.70;53.30
50690;DHT22;54375;48.298;11.238;2022-09-03T11:57:45;26.20;52.10
50690;DHT22;54375;48.298;11.238;2022-09-03T12:00:47;26.40;51.00
50690;DHT22;54375;48.298;11.238;2022-09-03T12:03:50;26.50;50.30
50690;DHT22;54375;48.298;11.238;2022-09-03T12:07:02;26.60;49.70
50690;DHT22;54375;48.298;11.238;2022-09-03T12:10:24;26.50;48.70
50690;DHT22;54375;48.298;11.238;2022-09-03T12:13:46;26.30;50.10
50690;DHT22;54375;48.298;11.238;2022-09-03T12:17:22;26.40;50.10
50690;DHT22;54375;48.298;11.238;2022-09-03T12:20:27;26.50;49.70
50690;DHT22;54375;48.298;11.238;2022-09-03T12:23:29;26.90;48.30
50690;DHT22;54375;48.298;11.238;2022-09-03T12:26:38;27.30;48.80
50690;DHT22;54375;48.298;11.238;2022-09-03T12:29:49;27.60;47.00
50690;DHT22;54375;48.298;11.238;2022-09-03T12:33:02;27.90;46.80
50690;DHT22;54375;48.298;11.238;2022-09-03T12:36:03;28.30;48.00
50690;DHT22;54375;48.298;11.238;2022-09-03T12:39:07;28.80;46.00
50690;DHT22;54375;48.298;11.238;2022-09-03T12:42:12;29.20;45.90
50690;DHT22;54375;48.298;11.238;2022-09-03T12:45:20;29.50;44.30
50690;DHT22;54375;48.298;11.238;2022-09-03T12:48:21;28.90;44.20
50690;DHT22;54375;48.298;11.238;2022-09-03T12:51:22;28.40;43.10
50690;DHT22;54375;48.298;11.238;2022-09-03T12:54:24;28.40;44.00
50690;DHT22;54375;48.298;11.238;2022-09-03T12:57:29;28.60;44.90
50690;DHT22;54375;48.298;11.238;2022-09-03T13:00:34;28.90;43.40
50690;DHT22;54375;48.298;11.238;2022-09-03T13:03:44;29.10;42.50
50690;DHT22;54375;48.298;11.238;2022-09-03T13:06:51;28.40;44.20
50690;DHT22;54375;48.298;11.238;2022-09-03T13:09:59;28.10;46.10
50690;DHT22;54375;48.298;11.238;2022-09-03T13:13:02;28.10;45.30
50690;DHT22;54375;48.298;11.238;2022-09-03T13:16:23;27.90;46.00
50690;DHT22;54375;48.298;11.238;2022-09-03T13:19:33;27.90;46.50
50690;DHT22;54375;48.298;11.238;2022-09-03T13:22:43;28.20;45.00
50690;DHT22;54375;48.298;11.238;2022-09-03T13:25:56;27.90;44.80
50690;DHT22;54375;48.298;11.238;2022-09-03T13:29:16;27.40;45.00
50690;DHT22;54375;48.298;11.238;2022-09-03T13:32:28;26.90;45.90
50690;DHT22;54375;48.298;11.238;2022-09-03T13:35:35;26.40;47.20
50690;DHT22;54375;48.298;11.238;2022-09-03T13:38:40;26.10;47.90
50690;DHT22;54375;48.298;11.238;2022-09-03T13:41:45;25.90;48.50
50690;DHT22;54375;48.298;11.238;2022-09-03T13:44:51;25.50;49.60
50690;DHT22;54375;48.298;11.238;2022-09-03T13:48:00;25.10;50.80
50690;DHT22;54375;48.298;11.238;2022-09-03T13:51:08;24.60;51.20
50690;DHT22;54375;48.298;11.238;2022-09-03T13:54:13;24.10;53.80
50690;DHT22;54375;48.298;11.238;2022-09-03T13:57:29;23.50;56.10
50690;DHT22;54375;48.298;11.238;2022-09-03T14:00:35;22.20;59.60
50690;DHT22;54375;48.298;11.238;2022-09-03T14:03:43;20.60;67.00
50690;DHT22;54375;48.298;11.238;2022-09-03T14:06:51;19.60;70.90
50690;DHT22;54375;48.298;11.238;2022-09-03T14:10:00;19.00;74.50
50690;DHT22;54375;48.298;11.238;2022-09-03T14:13:09;18.70;77.20
50690;DHT22;54375;48.298;11.238;2022-09-03T14:16:23;18.40;78.40
50690;DHT22;54375;48.298;11.238;2022-09-03T14:19:36;18.50;78.60
50690;DHT22;54375;48.298;11.238;2022-09-03T14:22:48;18.50;78.60
50690;DHT22;54375;48.298;11.238;2022-09-03T14:25:52;18.50;78.30
50690;DHT22;54375;48.298;11.238;2022-09-03T14:28:58;18.50;77.40
50690;DHT22;54375;48.298;11.238;2022-09-03T14:32:09;18.40;77.70
50690;DHT22;54375;48.298;11.238;2022-09-03T14:35:24;18.40;78.20
50690;DHT22;54375;48.298;11.238;2022-09-03T14:45:54;18.30;78.40
50690;DHT22;54375;48.298;11.238;2022-09-03T14:49:09;18.30;79.10
50690;DHT22;54375;48.298;11.238;2022-09-03T14:55:55;18.50;78.40
50690;DHT22;54375;48.298;11.238;2022-09-03T14:59:17;18.50;78.60
50690;DHT22;54375;48.298;11.238;2022-09-03T15:03:00;18.70;78.90
50690;DHT22;54375;48.298;11.238;2022-09-03T15:06:19;18.80;78.30
50690;DHT22;54375;48.298;11.238;2022-09-03T15:09:31;18.90;77.70
50690;DHT22;54375;48.298;11.238;2022-09-03T15:12:36;19.00;77.70
50690;DHT22;54375;48.298;11.238;2022-09-03T15:19:11;18.90;78.20
50690;DHT22;54375;48.298;11.238;2022-09-03T15:22:21;18.90;78.70
50690;DHT22;54375;48.298;11.238;2022-09-03T15:25:39;18.90;78.70
50690;DHT22;54375;48.298;11.238;2022-09-03T15:28:54;18.90;78.30
50690;DHT22;54375;48.298;11.238;2022-09-03T15:32:05;19.00;78.20
50690;DHT22;54375;48.298;11.238;2022-09-03T15:35:09;19.00;78.20
50690;DHT22;54375;48.298;11.238;2022-09-03T15:38:19;19.10;78.50
50690;DHT22;54375;48.298;11.238;2022-09-03T15:41:39;19.20;78.50
50690;DHT22;54375;48.298;11.238;2022-09-03T15:44:43;19.30;78.30
50690;DHT22;54375;48.298;11.238;2022-09-03T15:47:52;19.30;78.30
50690;DHT22;54375;48.298;11.238;2022-09-03T15:51:04;19.40;78.10
50690;DHT22;54375;48.298;11.238;2022-09-03T15:54:11;19.50;77.80
50690;DHT22;54375;48.298;11.238;2022-09-03T15:57:20;19.50;77.80
50690;DHT22;54375;48.298;11.238;2022-09-03T16:00:22;19.60;77.80
50690;DHT22;54375;48.298;11.238;2022-09-03T16:03:33;19.50;77.50
50690;DHT22;54375;48.298;11.238;2022-09-03T16:06:46;19.50;77.80
50690;DHT22;54375;48.298;11.238;2022-09-03T16:09:55;19.50;77.50
50690;DHT22;54375;48.298;11.238;2022-09-03T16:13:04;19.80;77.40
50690;DHT22;54375;48.298;11.238;2022-09-03T16:16:10;20.10;75.80
50690;DHT22;54375;48.298;11.238;2022-09-03T16:19:16;20.20;74.80
50690;DHT22;54375;48.298;11.238;2022-09-03T16:22:25;20.20;74.30
50690;DHT22;54375;48.298;11.238;2022-09-03T16:25:30;20.10;74.40
50690;DHT22;54375;48.298;11.238;2022-09-03T16:28:36;20.30;74.40
50690;DHT22;54375;48.298;11.238;2022-09-03T16:31:54;20.50;73.90
50690;DHT22;54375;48.298;11.238;2022-09-03T16:35:08;20.80;72.50
50690;DHT22;54375;48.298;11.238;2022-09-03T16:38:25;21.10;71.60
50690;DHT22;54375;48.298;11.238;2022-09-03T16:41:33;21.40;70.10
50690;DHT22;54375;48.298;11.238;2022-09-03T16:44:45;21.40;68.80
50690;DHT22;54375;48.298;11.238;2022-09-03T16:48:00;21.40;68.70
50690;DHT22;54375;48.298;11.238;2022-09-03T16:51:07;21.30;69.10
50690;DHT22;54375;48.298;11.238;2022-09-03T16:54:22;21.30;69.20
50690;DHT22;54375;48.298;11.238;2022-09-03T16:57:35;21.30;69.70
50690;DHT22;54375;48.298;11.238;2022-09-03T17:00:48;21.40;69.10
50690;DHT22;54375;48.298;11.238;2022-09-03T17:04:25;21.40;68.60
50690;DHT22;54375;48.298;11.238;2022-09-03T17:07:46;21.30;68.60
50690;DHT22;54375;48.298;11.238;2022-09-03T17:11:02;21.10;68.70
50690;DHT22;54375;48.298;11.238;2022-09-03T17:14:19;21.00;68.90
50690;DHT22;54375;48.298;11.238;2022-09-03T17:17:40;20.70;69.30
50690;DHT22;54375;48.298;11.238;2022-09-03T17:21:22;20.50;70.10
50690;DHT22;54375;48.298;11.238;2022-09-03T17:24:35;20.30;70.80
50690;DHT22;54375;48.298;11.238;2022-09-03T17:27:48;20.10;71.20
50690;DHT22;54375;48.298;11.238;2022-09-03T17:30:55;20.00;71.70
50690;DHT22;54375;48.298;11.238;2022-09-03T17:34:04;19.80;72.00
50690;DHT22;54375;48.298;11.238;2022-09-03T17:37:13;19.60;72.60
50690;DHT22;54375;48.298;11.238;2022-09-03T17:40:24;19.40;73.30
50690;DHT22;54375;48.298;11.238;2022-09-03T17:43:30;19.30;74.10
50690;DHT22;54375;48.298;11.238;2022-09-03T17:46:38;19.00;74.60
50690;DHT22;54375;48.298;11.238;2022-09-03T17:49:45;18.90;75.20
50690;DHT22;54375;48.298;11.238;2022-09-03T17:52:49;18.70;75.90
50690;DHT22;54375;48.298;11.238;2022-09-03T17:56:00;18.50;76.50
50690;DHT22;54375;48.298;11.238;2022-09-03T17:59:07;18.40;77.10
50690;DHT22;54375;48.298;11.238;2022-09-03T18:02:23;18.20;77.90
50690;DHT22;54375;48.298;11.238;2022-09-03T18:05:28;18.10;78.30
50690;DHT22;54375;48.298;11.238;2022-09-03T18:08:35;18.00;78.80
50690;DHT22;54375;48.298;11.238;2022-09-03T18:11:47;17.90;79.10
50690;DHT22;54375;48.298;11.238;2022-09-03T18:14:55;17.70;79.40
50690;DHT22;54375;48.298;11.238;2022-09-03T18:17:58;17.60;79.70
50690;DHT22;54375;48.298;11.238;2022-09-03T18:21:04;17.50;80.00
50690;DHT22;54375;48.298;11.238;2022-09-03T18:24:22;17.40;80.40
50690;DHT22;54375;48.298;11.238;2022-09-03T18:27:34;17.30;80.70
50690;DHT22;54375;48.298;11.238;2022-09-03T18:30:36;17.20;81.20
50690;DHT22;54375;48.298;11.238;2022-09-03T18:33:36;17.10;81.70
50690;DHT22;54375;48.298;11.238;2022-09-03T18:36:39;17.00;82.00
50690;DHT22;54375;48.298;11.238;2022-09-03T18:39:39;16.90;82.10
50690;DHT22;54375;48.298;11.238;2022-09-03T18:42:49;16.80;82.50
50690;DHT22;54375;48.298;11.238;2022-09-03T18:45:54;16.80;83.10
50690;DHT22;54375;48.298;11.238;2022-09-03T18:49:04;16.70;82.80
50690;DHT22;54375;48.298;11.238;2022-09-03T18:52:15;16.60;83.30
50690;DHT22;54375;48.298;11.238;2022-09-03T18:55:22;16.50;83.90
50690;DHT22;54375;48.298;11.238;2022-09-03T18:58:31;16.40;84.30
50690;DHT22;54375;48.298;11.238;2022-09-03T19:01:37;16.30;84.40
50690;DHT22;54375;48.298;11.238;2022-09-03T19:04:52;16.20;84.50
50690;DHT22;54375;48.298;11.238;2022-09-03T19:08:01;16.10;85.30
50690;DHT22;54375;48.298;11.238;2022-09-03T19:11:21;16.10;85.40
50690;DHT22;54375;48.298;11.238;2022-09-03T19:14:31;16.00;85.50
50690;DHT22;54375;48.298;11.238;2022-09-03T19:17:44;15.90;85.30
50690;DHT22;54375;48.298;11.238;2022-09-03T19:21:02;15.90;85.10
50690;DHT22;54375;48.298;11.238;2022-09-03T19:24:05;15.90;85.10
50690;DHT22;54375;48.298;11.238;2022-09-03T19:27:13;15.80;85.20
50690;DHT22;54375;48.298;11.238;2022-09-03T19:30:19;15.80;85.30
50690;DHT22;54375;48.298;11.238;2022-09-03T19:33:25;15.70;85.40